Observations for FAIRFORD RAF, United Kingdom (EGVA)

EGVA 180256Z AUTO 16005KT M M OVC006 05/04 A3016 RMK AO2 CIG 005 RWY09 SLP219 T00510041 57005 RVRNO $   
EGVA 180201Z AUTO 20004KT M M OVC005 05/04 A3016 RMK AO2 SLP219 RVRNO $
EGVA 180251Z AUTO 16003KT M M OVC006 05/04 A3016 RMK AO2 CIG 005 RWY09 SLP219 RVRNO $
EGVA 180156Z AUTO 20004KT M M BKN006 OVC070 05/04 A3017 RMK AO2 SLP222 T00520042 RVRNO $
EGVA 180126Z AUTO 17007KT M M SCT006 OVC065 05/04 A3016 RMK AO2 SLP219 RVRNO $
EGVA 180111Z AUTO 15003KT M M OVC006 05/04 A3017 RMK AO2 SLP222 RVRNO $
EGVA 180146Z AUTO 19004KT M M BKN006 OVC070 05/04 A3017 RMK AO2 CIG 006V070 BKNV SCT SLP222 RVRNO $
EGVA 180056Z AUTO 16003KT M M OVC005 05/04 A3017 RMK AO2 SLP222 T00470037 RVRNO $   
EGVA 180001Z AUTO 00000KT M M OVC005 03/02 A3017 RMK AO2 SLP223 RVRNO $
EGVA 172356Z AUTO 00000KT M M BKN006 OVC040 03/02 A3017 RMK AO2 SLP223 T00340021 10056 20023 400950004 55000 RVRNO $
EGVA 172339Z AUTO 00000KT M M SCT006 OVC038 03/02 A3017 RMK AO2 SLP223 RVRNO $
EGVA 172344Z AUTO 00000KT M M BKN006 OVC038 03/02 A3017 RMK AO2 CIG 006V038 BKNV SCT SLP223 RVRNO $
EGVA 172256Z AUTO 07003KT M M BKN038 02/01 A3017 RMK AO2 SLP224 T00240012 RVRNO $   
EGVA 172156Z AUTO 13003KT M M CLR 03/01 A3017 RMK AO2 SLP224 T00280012 RVRNO $  
EGVA 172056Z AUTO 19006KT M M FEW050 SCT060 04/02 A3017 RMK AO2 SLP224 T00350015 51005 RVRNO $  
EGVA 172041Z AUTO 18004KT M M SCT029 SCT039 BKN050 BKN060 04/02 A3017 RMK AO2 SLP224 RVRNO $
EGVA 172001Z AUTO 00000KT M M FEW031 BKN040 04/01 A3017 RMK AO2 SLP224 RVRNO $
EGVA 171956Z AUTO 00000KT M M SCT031 04/02 A3017 RMK AO2 SLP224 T00380015 RVRNO $   
EGVA 171906Z AUTO 00000KT M M BKN034 04/02 A3017 RMK AO2 SLP224 RVRNO $
EGVA 171911Z AUTO 00000KT M M SCT034 05/02 A3017 RMK AO2 SLP224 RVRNO $
EGVA 171901Z AUTO 00000KT M M SCT034 04/02 A3017 RMK AO2 SLP224 RVRNO $
EGVA 171856Z AUTO 00000KT M M BKN033 05/02 A3017 RMK AO2 SLP224 T00520020 RVRNO $   
EGVA 171831Z AUTO 21003KT M M BKN032 05/02 A3017 RMK AO2 SLP224 RVRNO $
EGVA 171756Z AUTO 21003KT M M CLR 06/02 A3016 RMK AO2 SLP220 T00580023 10095 20055 53004 RVRNO $
EGVA 171656Z AUTO 22004KT M M CLR 08/03 A3015 RMK AO2 SLP216 T00780033 RVRNO $  
EGVA 171556Z AUTO 23008KT M M FEW021 09/03 A3015 RMK AO2 SLP216 T00910033 RVRNO $   
EGVA 171531Z AUTO 24009KT M M FEW027 SCT041 09/04 A3015 RMK AO2 SLP216 RVRNO $
EGVA 171456Z AUTO 23008KT M M FEW024 OVC033 09/04 A3014 RMK AO2 SLP213 T00850037 56006 RVRNO $  
EGVA 171356Z AUTO 23008KT M M BKN036 09/03 A3015 RMK AO2 SLP216 T00850033 RVRNO $   
EGVA 171346Z AUTO 22011KT M M FEW024 BKN036 09/03 A3015 RMK AO2 SLP216 RVRNO $
EGVA 171256Z AUTO 22011KT M M SCT023 BKN055 OVC075 09/03 A3016 RMK AO2 SLP220 T00880034 RVRNO $ 
EGVA 171226Z AUTO 26010KT M M BKN024 09/03 A3016 RMK AO2 CIG 024V080 SLP220 RVRNO $
EGVA 171231Z AUTO 24008KT M M SCT023 BKN050 BKN075 09/03 A3016 RMK AO2 SLP220 RVRNO $
EGVA 171251Z AUTO 22008KT M M BKN023 BKN055 OVC075 09/04 A3016 RMK AO2 CIG 023V055 BKN023 V SCT SLP220 RVRNO $
EGVA 171156Z AUTO 22009KT M M SCT080 09/03 A3016 RMK AO2 SLP219 T00910031 10091 20004 52008 RVRNO $ 
EGVA 171056Z AUTO 22004KT M M OVC070 07/04 A3016 RMK AO2 SLP220 T00660036 RVRNO $   
EGVA 170956Z AUTO 00000KT M M BKN065 OVC100 05/03 A3015 RMK AO2 SLP217 T00490031 RVRNO $
EGVA 170856Z AUTO 10003KT M M FEW070 02/01 A3014 RMK AO2 SLP214 T00220013 53003 RVRNO $ 
EGVA 170806Z AUTO 00000KT M BR OVC110 01/00 A3014 RMK AO2 VIS 2000 RWY09 SLP214RVRNO $
EGVA 170811Z AUTO 00000KT M BR OVC110 01/00 A3014 RMK AO2 VIS 4400 RWY09 SLP214RVRNO $
EGVA 170816Z AUTO 09004KT M BR BKN110 01/00 A3014 RMK AO2 SLP214 RVRNO $
EGVA 170801Z AUTO 00000KT M BR OVC110 01/00 A3014 RMK AO2 VIS 1800 RWY09 SLP214RVRNO $
EGVA 170756Z AUTO 10003KT M BR OVC110 01/00 A3014 RMK AO2 VIS 2400 RWY09 SLP214 T00100001 RVRNO $   
EGVA 170656Z AUTO 00000KT M BR BKN080 OVC100 01/00 A3013 RMK AO2 SLP210 T00091001 RVRNO $   
EGVA 170556Z AUTO 05003KT M BR FEW040 BKN060 BKN075 01/00 A3013 RMK AO2 SLP210 T00100000 10026 20004 53000 RVRNO $  
EGVA 170456Z AUTO 07003KT M M BKN070 BKN080 01/00 A3013 RMK AO2 SLP210 T00100000 RVRNO $
EGVA 170356Z AUTO 05003KT M M SCT095 01/00 A3013 RMK AO2 SLP210 T00100000 RVRNO $   
EGVA 170256Z AUTO 05004KT M M CLR 01/M01 A3013 RMK AO2 SLP210 T00061006 57011 RVRNO $